Flugplatz Dachau-Gröbenried

Für EDMD sind keine METAR/TAF Berichte vorhanden.
Es werden die Flugwettermeldungen vom Flugplatz Oberpfaffenhofen in 19 km Entfernung angezeigt.

Bericht für EDMO

vom 23.08. um 12:20 UTC

Wind 8 kt aus 80°

Sichtweite 10 km oder mehr

aufgebrochene Bewölkung in 2900 ft

Temperatur 20.0°C

Taupunkt 15.0°C

Luftfeuchtigkeit 73%

Luftdruck 1025 hPa

EDMO 231220Z 08008KT 030V110 9999 BKN029 20/15 Q1025

Prognose für EDMO

vom 23.08. um 00:00 UTC

Zwischen 00:00 UTC und 00:00 UTC

Wind 7 kt aus 80°

Sichtweite 10 km oder mehr

aufgebrochene Bewölkung in 3000 ft

TAF EDMO 231100Z 2312/2321 08007KT 9999 BKN030
Impressum